<?xml version="1.0" encoding="utf-8"?>
<gpx xmlns:xsi="http://www.w3.org/2001/XMLSchema-instance" xmlns:xsd="http://www.w3.org/2001/XMLSchema" version="1.1" creator="Shapelink.com" xmlns="http://www.topografix.com/GPX/1/1" xmlns:gpxtpx="http://www.garmin.com/xmlschemas/TrackPointExtension/v1">
  <metadata>
    <name>Löpning 4.17 km, 2020-10-24</name>
    <desc></desc>
    <author><name>Marian Moron</name></author> 
    <time>2020-10-24T11:17:41Z</time>
  </metadata>
  <trk>
    <name>Löpning 4.17 km, 2020-10-24</name>
    <trkseg>
      <trkpt lat="51.217096868362" lon="4.480055644954">
        <ele>0</ele>
        <time>2020-10-24T11:17:41Z</time>
      </trkpt>
      <trkpt lat="51.217123187528" lon="4.479768061965">
        <ele>0</ele>
        <time>2020-10-24T11:17:47Z</time>
      </trkpt>
      <trkpt lat="51.217136933844" lon="4.479467151755">
        <ele>0</ele>
        <time>2020-10-24T11:17:55Z</time>
      </trkpt>
      <trkpt lat="51.217156798947" lon="4.479148052822">
        <ele>0</ele>
        <time>2020-10-24T11:18:03Z</time>
      </trkpt>
      <trkpt lat="51.217168114512" lon="4.47885066301">
        <ele>0</ele>
        <time>2020-10-24T11:18:10Z</time>
      </trkpt>
      <trkpt lat="51.217179094801" lon="4.478564253487">
        <ele>0</ele>
        <time>2020-10-24T11:18:17Z</time>
      </trkpt>
      <trkpt lat="51.217202983216" lon="4.478255380472">
        <ele>0</ele>
        <time>2020-10-24T11:18:24Z</time>
      </trkpt>
      <trkpt lat="51.217210024012" lon="4.47793452134">
        <ele>0</ele>
        <time>2020-10-24T11:18:32Z</time>
      </trkpt>
      <trkpt lat="51.217220752844" lon="4.477634868415">
        <ele>0</ele>
        <time>2020-10-24T11:18:39Z</time>
      </trkpt>
      <trkpt lat="51.217231230219" lon="4.477329012884">
        <ele>0</ele>
        <time>2020-10-24T11:18:46Z</time>
      </trkpt>
      <trkpt lat="51.217233241875" lon="4.477040004972">
        <ele>0</ele>
        <time>2020-10-24T11:18:53Z</time>
      </trkpt>
      <trkpt lat="51.217245563268" lon="4.476741693151">
        <ele>0</ele>
        <time>2020-10-24T11:19:00Z</time>
      </trkpt>
      <trkpt lat="51.217254783358" lon="4.476423348589">
        <ele>0</ele>
        <time>2020-10-24T11:19:07Z</time>
      </trkpt>
      <trkpt lat="51.21726132124" lon="4.476133921582">
        <ele>0</ele>
        <time>2020-10-24T11:19:14Z</time>
      </trkpt>
      <trkpt lat="51.217270206054" lon="4.475844159299">
        <ele>0</ele>
        <time>2020-10-24T11:19:21Z</time>
      </trkpt>
      <trkpt lat="51.217304571844" lon="4.475562946554">
        <ele>0</ele>
        <time>2020-10-24T11:19:28Z</time>
      </trkpt>
      <trkpt lat="51.217341284566" lon="4.475249044399">
        <ele>0</ele>
        <time>2020-10-24T11:19:36Z</time>
      </trkpt>
      <trkpt lat="51.217339692005" lon="4.474950229664">
        <ele>0</ele>
        <time>2020-10-24T11:19:43Z</time>
      </trkpt>
      <trkpt lat="51.217338602358" lon="4.474647894531">
        <ele>0</ele>
        <time>2020-10-24T11:19:50Z</time>
      </trkpt>
      <trkpt lat="51.217347235715" lon="4.474354276574">
        <ele>0</ele>
        <time>2020-10-24T11:19:56Z</time>
      </trkpt>
      <trkpt lat="51.217353605959" lon="4.474042050799">
        <ele>0</ele>
        <time>2020-10-24T11:20:03Z</time>
      </trkpt>
      <trkpt lat="51.217372046139" lon="4.473747343195">
        <ele>0</ele>
        <time>2020-10-24T11:20:11Z</time>
      </trkpt>
      <trkpt lat="51.217382188238" lon="4.473450959211">
        <ele>0</ele>
        <time>2020-10-24T11:20:18Z</time>
      </trkpt>
      <trkpt lat="51.217412530716" lon="4.473166980439">
        <ele>0</ele>
        <time>2020-10-24T11:20:25Z</time>
      </trkpt>
      <trkpt lat="51.21741806277" lon="4.472850144619">
        <ele>0</ele>
        <time>2020-10-24T11:20:34Z</time>
      </trkpt>
      <trkpt lat="51.217418481865" lon="4.472547977124">
        <ele>0</ele>
        <time>2020-10-24T11:20:43Z</time>
      </trkpt>
      <trkpt lat="51.217455110768" lon="4.472246144905">
        <ele>0</ele>
        <time>2020-10-24T11:20:50Z</time>
      </trkpt>
      <trkpt lat="51.217458798804" lon="4.471943306858">
        <ele>0</ele>
        <time>2020-10-24T11:20:57Z</time>
      </trkpt>
      <trkpt lat="51.217455446044" lon="4.471773992478">
        <ele>0</ele>
        <time>2020-10-24T11:21:01Z</time>
      </trkpt>
      <trkpt lat="51.217485034151" lon="4.471534437776">
        <ele>0</ele>
        <time>2020-10-24T11:22:26Z</time>
      </trkpt>
      <trkpt lat="51.217511772412" lon="4.471208717142">
        <ele>0</ele>
        <time>2020-10-24T11:22:36Z</time>
      </trkpt>
      <trkpt lat="51.217516801552" lon="4.470884337612">
        <ele>0</ele>
        <time>2020-10-24T11:22:43Z</time>
      </trkpt>
      <trkpt lat="51.217521663054" lon="4.470588288904">
        <ele>0</ele>
        <time>2020-10-24T11:22:49Z</time>
      </trkpt>
      <trkpt lat="51.217517388285" lon="4.470281259907">
        <ele>0</ele>
        <time>2020-10-24T11:22:55Z</time>
      </trkpt>
      <trkpt lat="51.21749852901" lon="4.469961909517">
        <ele>0</ele>
        <time>2020-10-24T11:23:01Z</time>
      </trkpt>
      <trkpt lat="51.217486626712" lon="4.469634931598">
        <ele>0</ele>
        <time>2020-10-24T11:23:07Z</time>
      </trkpt>
      <trkpt lat="51.217483022495" lon="4.46930786986">
        <ele>0</ele>
        <time>2020-10-24T11:23:14Z</time>
      </trkpt>
      <trkpt lat="51.217495427707" lon="4.468977455362">
        <ele>0.2</ele>
        <time>2020-10-24T11:23:20Z</time>
      </trkpt>
      <trkpt lat="51.217530128773" lon="4.468666319234">
        <ele>0</ele>
        <time>2020-10-24T11:23:26Z</time>
      </trkpt>
      <trkpt lat="51.217561141803" lon="4.46836155335">
        <ele>0</ele>
        <time>2020-10-24T11:23:32Z</time>
      </trkpt>
      <trkpt lat="51.217585533132" lon="4.468042454417">
        <ele>0</ele>
        <time>2020-10-24T11:23:39Z</time>
      </trkpt>
      <trkpt lat="51.217586706598" lon="4.467732240298">
        <ele>0</ele>
        <time>2020-10-24T11:23:47Z</time>
      </trkpt>
      <trkpt lat="51.217615121239" lon="4.467432503554">
        <ele>0</ele>
        <time>2020-10-24T11:23:55Z</time>
      </trkpt>
      <trkpt lat="51.217660383499" lon="4.467120864512">
        <ele>0</ele>
        <time>2020-10-24T11:24:03Z</time>
      </trkpt>
      <trkpt lat="51.217663903897" lon="4.46680838728">
        <ele>0</ele>
        <time>2020-10-24T11:24:10Z</time>
      </trkpt>
      <trkpt lat="51.217674632729" lon="4.466476212583">
        <ele>0</ele>
        <time>2020-10-24T11:24:17Z</time>
      </trkpt>
      <trkpt lat="51.217669687408" lon="4.466169351224">
        <ele>0</ele>
        <time>2020-10-24T11:24:23Z</time>
      </trkpt>
      <trkpt lat="51.217684774828" lon="4.465882606425">
        <ele>0</ele>
        <time>2020-10-24T11:24:29Z</time>
      </trkpt>
      <trkpt lat="51.217699359334" lon="4.465780095788">
        <ele>0</ele>
        <time>2020-10-24T11:24:32Z</time>
      </trkpt>
      <trkpt lat="51.217694916927" lon="4.46566090517">
        <ele>0</ele>
        <time>2020-10-24T11:25:50Z</time>
      </trkpt>
      <trkpt lat="51.217727606337" lon="4.465350523413">
        <ele>0</ele>
        <time>2020-10-24T11:26:01Z</time>
      </trkpt>
      <trkpt lat="51.217738167531" lon="4.465044584063">
        <ele>0</ele>
        <time>2020-10-24T11:26:09Z</time>
      </trkpt>
      <trkpt lat="51.21776926438" lon="4.464746942794">
        <ele>0</ele>
        <time>2020-10-24T11:26:17Z</time>
      </trkpt>
      <trkpt lat="51.217791141139" lon="4.464455755588">
        <ele>0</ele>
        <time>2020-10-24T11:26:24Z</time>
      </trkpt>
      <trkpt lat="51.217788039836" lon="4.464126682194">
        <ele>0</ele>
        <time>2020-10-24T11:26:31Z</time>
      </trkpt>
      <trkpt lat="51.217800361229" lon="4.463816719532">
        <ele>0</ele>
        <time>2020-10-24T11:26:38Z</time>
      </trkpt>
      <trkpt lat="51.21781704121" lon="4.463495776581">
        <ele>0</ele>
        <time>2020-10-24T11:26:45Z</time>
      </trkpt>
      <trkpt lat="51.217839756159" lon="4.463186233014">
        <ele>2</ele>
        <time>2020-10-24T11:26:51Z</time>
      </trkpt>
      <trkpt lat="51.217853334837" lon="4.462865709158">
        <ele>3.8</ele>
        <time>2020-10-24T11:26:57Z</time>
      </trkpt>
      <trkpt lat="51.217846042584" lon="4.4625487057">
        <ele>6.4</ele>
        <time>2020-10-24T11:27:03Z</time>
      </trkpt>
      <trkpt lat="51.217850904086" lon="4.462244610368">
        <ele>5.8</ele>
        <time>2020-10-24T11:27:09Z</time>
      </trkpt>
      <trkpt lat="51.217858615434" lon="4.461937078457">
        <ele>4.6</ele>
        <time>2020-10-24T11:27:16Z</time>
      </trkpt>
      <trkpt lat="51.217862806384" lon="4.461812607242">
        <ele>4.2</ele>
        <time>2020-10-24T11:27:19Z</time>
      </trkpt>
      <trkpt lat="51.217922234055" lon="4.461036191845">
        <ele>0</ele>
        <time>2020-10-24T11:31:19Z</time>
      </trkpt>
      <trkpt lat="51.21793187324" lon="4.460930076991">
        <ele>0</ele>
        <time>2020-10-24T11:31:23Z</time>
      </trkpt>
      <trkpt lat="51.217963137727" lon="4.460622293623">
        <ele>0</ele>
        <time>2020-10-24T11:31:31Z</time>
      </trkpt>
      <trkpt lat="51.217966490487" lon="4.460323227431">
        <ele>0</ele>
        <time>2020-10-24T11:31:38Z</time>
      </trkpt>
      <trkpt lat="51.217985433581" lon="4.46001569552">
        <ele>0</ele>
        <time>2020-10-24T11:31:46Z</time>
      </trkpt>
      <trkpt lat="51.217976800224" lon="4.459720149726">
        <ele>0</ele>
        <time>2020-10-24T11:31:53Z</time>
      </trkpt>
      <trkpt lat="51.217990797997" lon="4.459406666666">
        <ele>0</ele>
        <time>2020-10-24T11:32:00Z</time>
      </trkpt>
      <trkpt lat="51.218031366393" lon="4.459097542194">
        <ele>0</ele>
        <time>2020-10-24T11:32:07Z</time>
      </trkpt>
      <trkpt lat="51.218041843768" lon="4.458810210662">
        <ele>0</ele>
        <time>2020-10-24T11:32:13Z</time>
      </trkpt>
      <trkpt lat="51.218059026663" lon="4.458509719547">
        <ele>0</ele>
        <time>2020-10-24T11:32:19Z</time>
      </trkpt>
      <trkpt lat="51.218078472671" lon="4.458205791853">
        <ele>0</ele>
        <time>2020-10-24T11:32:25Z</time>
      </trkpt>
      <trkpt lat="51.218076712472" lon="4.457883507798">
        <ele>0</ele>
        <time>2020-10-24T11:32:31Z</time>
      </trkpt>
      <trkpt lat="51.218065648364" lon="4.45757656262">
        <ele>0.4</ele>
        <time>2020-10-24T11:32:37Z</time>
      </trkpt>
      <trkpt lat="51.218079729956" lon="4.45726307956">
        <ele>1.6</ele>
        <time>2020-10-24T11:32:43Z</time>
      </trkpt>
      <trkpt lat="51.218081993069" lon="4.456943393894">
        <ele>0</ele>
        <time>2020-10-24T11:32:50Z</time>
      </trkpt>
      <trkpt lat="51.218095152652" lon="4.456624462599">
        <ele>0</ele>
        <time>2020-10-24T11:32:58Z</time>
      </trkpt>
      <trkpt lat="51.218123399655" lon="4.456308967883">
        <ele>0</ele>
        <time>2020-10-24T11:33:05Z</time>
      </trkpt>
      <trkpt lat="51.218136475419" lon="4.455994730452">
        <ele>0</ele>
        <time>2020-10-24T11:33:12Z</time>
      </trkpt>
      <trkpt lat="51.218155250875" lon="4.455678229908">
        <ele>0</ele>
        <time>2020-10-24T11:33:19Z</time>
      </trkpt>
      <trkpt lat="51.218163548956" lon="4.455352341636">
        <ele>0</ele>
        <time>2020-10-24T11:33:26Z</time>
      </trkpt>
      <trkpt lat="51.218179223109" lon="4.45502678864">
        <ele>0</ele>
        <time>2020-10-24T11:33:33Z</time>
      </trkpt>
      <trkpt lat="51.218190538674" lon="4.454736858719">
        <ele>0</ele>
        <time>2020-10-24T11:33:39Z</time>
      </trkpt>
      <trkpt lat="51.218206296646" lon="4.454402923823">
        <ele>0</ele>
        <time>2020-10-24T11:33:46Z</time>
      </trkpt>
      <trkpt lat="51.218210655234" lon="4.454104528183">
        <ele>0</ele>
        <time>2020-10-24T11:33:52Z</time>
      </trkpt>
      <trkpt lat="51.218221635523" lon="4.453800935765">
        <ele>0</ele>
        <time>2020-10-24T11:33:58Z</time>
      </trkpt>
      <trkpt lat="51.218228676319" lon="4.453485021954">
        <ele>0</ele>
        <time>2020-10-24T11:34:05Z</time>
      </trkpt>
      <trkpt lat="51.218234040735" lon="4.453427689758">
        <ele>0</ele>
        <time>2020-10-24T11:34:07Z</time>
      </trkpt>
      <trkpt lat="51.218236722943" lon="4.453316126669">
        <ele>0</ele>
        <time>2020-10-24T11:37:51Z</time>
      </trkpt>
      <trkpt lat="51.218213840356" lon="4.453633213946">
        <ele>0</ele>
        <time>2020-10-24T11:38:01Z</time>
      </trkpt>
      <trkpt lat="51.218194059072" lon="4.453928173007">
        <ele>0</ele>
        <time>2020-10-24T11:38:08Z</time>
      </trkpt>
      <trkpt lat="51.218179390747" lon="4.454243164809">
        <ele>0</ele>
        <time>2020-10-24T11:38:15Z</time>
      </trkpt>
      <trkpt lat="51.218158519816" lon="4.454559832991">
        <ele>0</ele>
        <time>2020-10-24T11:38:22Z</time>
      </trkpt>
      <trkpt lat="51.218146198423" lon="4.454883206693">
        <ele>1</ele>
        <time>2020-10-24T11:38:29Z</time>
      </trkpt>
      <trkpt lat="51.218137816523" lon="4.455174393899">
        <ele>1.8</ele>
        <time>2020-10-24T11:38:35Z</time>
      </trkpt>
      <trkpt lat="51.218138487075" lon="4.455484188923">
        <ele>1.8</ele>
        <time>2020-10-24T11:38:41Z</time>
      </trkpt>
      <trkpt lat="51.218137397428" lon="4.45577445412">
        <ele>1.4</ele>
        <time>2020-10-24T11:38:47Z</time>
      </trkpt>
      <trkpt lat="51.218101858172" lon="4.45639806748">
        <ele>0</ele>
        <time>2020-10-24T11:38:59Z</time>
      </trkpt>
      <trkpt lat="51.218081322517" lon="4.456700486432">
        <ele>0</ele>
        <time>2020-10-24T11:39:05Z</time>
      </trkpt>
      <trkpt lat="51.21807604192" lon="4.457010868189">
        <ele>2.4</ele>
        <time>2020-10-24T11:39:11Z</time>
      </trkpt>
      <trkpt lat="51.218070928961" lon="4.457301887757">
        <ele>2.8</ele>
        <time>2020-10-24T11:39:18Z</time>
      </trkpt>
      <trkpt lat="51.218063301432" lon="4.457625848192">
        <ele>3.8</ele>
        <time>2020-10-24T11:39:26Z</time>
      </trkpt>
      <trkpt lat="51.218057350283" lon="4.457954167215">
        <ele>5</ele>
        <time>2020-10-24T11:39:34Z</time>
      </trkpt>
      <trkpt lat="51.218058691387" lon="4.458267901732">
        <ele>4</ele>
        <time>2020-10-24T11:39:41Z</time>
      </trkpt>
      <trkpt lat="51.218036898447" lon="4.458576271833">
        <ele>4</ele>
        <time>2020-10-24T11:39:49Z</time>
      </trkpt>
      <trkpt lat="51.218013764403" lon="4.458879528975">
        <ele>6</ele>
        <time>2020-10-24T11:39:56Z</time>
      </trkpt>
      <trkpt lat="51.217983254287" lon="4.459189575456">
        <ele>8.6</ele>
        <time>2020-10-24T11:40:04Z</time>
      </trkpt>
      <trkpt lat="51.217983924839" lon="4.459501633593">
        <ele>12.4</ele>
        <time>2020-10-24T11:40:12Z</time>
      </trkpt>
      <trkpt lat="51.217969843247" lon="4.459825258752">
        <ele>14.2</ele>
        <time>2020-10-24T11:40:19Z</time>
      </trkpt>
      <trkpt lat="51.217948553221" lon="4.460133964129">
        <ele>11.8</ele>
        <time>2020-10-24T11:40:25Z</time>
      </trkpt>
      <trkpt lat="51.217888790274" lon="4.460435209615">
        <ele>12.8</ele>
        <time>2020-10-24T11:40:32Z</time>
      </trkpt>
      <trkpt lat="51.217877055614" lon="4.460723630794">
        <ele>13.2</ele>
        <time>2020-10-24T11:40:38Z</time>
      </trkpt>
      <trkpt lat="51.217882000935" lon="4.46083125439">
        <ele>12.8</ele>
        <time>2020-10-24T11:40:40Z</time>
      </trkpt>
      <trkpt lat="51.217930783593" lon="4.461635246238">
        <ele>3.6</ele>
        <time>2020-10-24T11:45:39Z</time>
      </trkpt>
      <trkpt lat="51.217948972316" lon="4.461960128682">
        <ele>3</ele>
        <time>2020-10-24T11:45:46Z</time>
      </trkpt>
      <trkpt lat="51.217918629838" lon="4.462295823777">
        <ele>2.6</ele>
        <time>2020-10-24T11:45:52Z</time>
      </trkpt>
      <trkpt lat="51.217909828843" lon="4.462636883288">
        <ele>2.8</ele>
        <time>2020-10-24T11:45:58Z</time>
      </trkpt>
      <trkpt lat="51.217906811359" lon="4.462953886746">
        <ele>1.8</ele>
        <time>2020-10-24T11:46:04Z</time>
      </trkpt>
      <trkpt lat="51.217866578239" lon="4.463254880775">
        <ele>0</ele>
        <time>2020-10-24T11:46:10Z</time>
      </trkpt>
      <trkpt lat="51.217826680395" lon="4.463561323039">
        <ele>0</ele>
        <time>2020-10-24T11:46:16Z</time>
      </trkpt>
      <trkpt lat="51.21782458492" lon="4.463902131093">
        <ele>0</ele>
        <time>2020-10-24T11:46:22Z</time>
      </trkpt>
      <trkpt lat="51.217803127256" lon="4.464214440687">
        <ele>0</ele>
        <time>2020-10-24T11:46:28Z</time>
      </trkpt>
      <trkpt lat="51.21777177895" lon="4.464531695602">
        <ele>1.2</ele>
        <time>2020-10-24T11:46:35Z</time>
      </trkpt>
      <trkpt lat="51.217769767294" lon="4.464826319387">
        <ele>1.2</ele>
        <time>2020-10-24T11:46:41Z</time>
      </trkpt>
      <trkpt lat="51.217781669592" lon="4.465143825759">
        <ele>2.6</ele>
        <time>2020-10-24T11:46:48Z</time>
      </trkpt>
      <trkpt lat="51.21779105732" lon="4.465485555822">
        <ele>5.4</ele>
        <time>2020-10-24T11:46:54Z</time>
      </trkpt>
      <trkpt lat="51.217797511383" lon="4.465807253144">
        <ele>8</ele>
        <time>2020-10-24T11:47:00Z</time>
      </trkpt>
      <trkpt lat="51.217769348199" lon="4.466099949092">
        <ele>8.6</ele>
        <time>2020-10-24T11:47:06Z</time>
      </trkpt>
      <trkpt lat="51.217730288545" lon="4.466385017511">
        <ele>9.2</ele>
        <time>2020-10-24T11:47:13Z</time>
      </trkpt>
      <trkpt lat="51.217684942466" lon="4.46668349697">
        <ele>7.2</ele>
        <time>2020-10-24T11:47:20Z</time>
      </trkpt>
      <trkpt lat="51.217688965778" lon="4.467003517912">
        <ele>4.4</ele>
        <time>2020-10-24T11:47:27Z</time>
      </trkpt>
      <trkpt lat="51.217671279969" lon="4.467317000972">
        <ele>2.4</ele>
        <time>2020-10-24T11:47:34Z</time>
      </trkpt>
      <trkpt lat="51.21765107959" lon="4.467612546766">
        <ele>2.8</ele>
        <time>2020-10-24T11:47:41Z</time>
      </trkpt>
      <trkpt lat="51.217668262485" lon="4.467905829447">
        <ele>1.4</ele>
        <time>2020-10-24T11:47:47Z</time>
      </trkpt>
      <trkpt lat="51.217665915553" lon="4.468159214284">
        <ele>0</ele>
        <time>2020-10-24T11:47:53Z</time>
      </trkpt>
      <trkpt lat="51.21766784339" lon="4.468215373014">
        <ele>0</ele>
        <time>2020-10-24T11:47:55Z</time>
      </trkpt>
      <trkpt lat="51.217662059879" lon="4.468284272232">
        <ele>0</ele>
        <time>2020-10-24T11:47:58Z</time>
      </trkpt>
      <trkpt lat="51.217564662201" lon="4.469057753964">
        <ele>0</ele>
        <time>2020-10-24T11:51:49Z</time>
      </trkpt>
      <trkpt lat="51.217552508446" lon="4.469380121838">
        <ele>0</ele>
        <time>2020-10-24T11:51:57Z</time>
      </trkpt>
      <trkpt lat="51.217544042727" lon="4.469714140553">
        <ele>0</ele>
        <time>2020-10-24T11:52:04Z</time>
      </trkpt>
      <trkpt lat="51.217543539813" lon="4.470050841476">
        <ele>0</ele>
        <time>2020-10-24T11:52:10Z</time>
      </trkpt>
      <trkpt lat="51.217517472104" lon="4.470361558509">
        <ele>0</ele>
        <time>2020-10-24T11:52:16Z</time>
      </trkpt>
      <trkpt lat="51.217486710531" lon="4.470672946094">
        <ele>0</ele>
        <time>2020-10-24T11:52:22Z</time>
      </trkpt>
      <trkpt lat="51.2174909853" lon="4.470999002004">
        <ele>0</ele>
        <time>2020-10-24T11:52:28Z</time>
      </trkpt>
      <trkpt lat="51.217481932848" lon="4.47131449672">
        <ele>0</ele>
        <time>2020-10-24T11:52:34Z</time>
      </trkpt>
      <trkpt lat="51.217491655852" lon="4.471637032232">
        <ele>0</ele>
        <time>2020-10-24T11:52:40Z</time>
      </trkpt>
      <trkpt lat="51.217443879022" lon="4.472240109937">
        <ele>0</ele>
        <time>2020-10-24T11:52:52Z</time>
      </trkpt>
      <trkpt lat="51.217432479638" lon="4.472555269377">
        <ele>0</ele>
        <time>2020-10-24T11:52:58Z</time>
      </trkpt>
      <trkpt lat="51.217409932327" lon="4.472847713868">
        <ele>0</ele>
        <time>2020-10-24T11:53:05Z</time>
      </trkpt>
      <trkpt lat="51.217415464381" lon="4.473133788115">
        <ele>0</ele>
        <time>2020-10-24T11:53:12Z</time>
      </trkpt>
      <trkpt lat="51.217407333938" lon="4.473461520405">
        <ele>0</ele>
        <time>2020-10-24T11:53:20Z</time>
      </trkpt>
      <trkpt lat="51.21738537336" lon="4.473771399248">
        <ele>0</ele>
        <time>2020-10-24T11:53:27Z</time>
      </trkpt>
      <trkpt lat="51.217361736402" lon="4.474073399105">
        <ele>1</ele>
        <time>2020-10-24T11:53:34Z</time>
      </trkpt>
      <trkpt lat="51.217348325362" lon="4.474392581857">
        <ele>3.4</ele>
        <time>2020-10-24T11:53:41Z</time>
      </trkpt>
      <trkpt lat="51.217327035336" lon="4.474696425732">
        <ele>4.8</ele>
        <time>2020-10-24T11:53:48Z</time>
      </trkpt>
      <trkpt lat="51.217304571844" lon="4.474981158875">
        <ele>5.6</ele>
        <time>2020-10-24T11:53:55Z</time>
      </trkpt>
      <trkpt lat="51.217280431972" lon="4.475272178443">
        <ele>5.2</ele>
        <time>2020-10-24T11:54:02Z</time>
      </trkpt>
      <trkpt lat="51.217273642633" lon="4.475566383133">
        <ele>3.4</ele>
        <time>2020-10-24T11:54:09Z</time>
      </trkpt>
      <trkpt lat="51.217269367864" lon="4.47587676489">
        <ele>3.2</ele>
        <time>2020-10-24T11:54:15Z</time>
      </trkpt>
      <trkpt lat="51.217251011503" lon="4.476173735607">
        <ele>3</ele>
        <time>2020-10-24T11:54:21Z</time>
      </trkpt>
      <trkpt lat="51.217245898544" lon="4.476478333853">
        <ele>4</ele>
        <time>2020-10-24T11:54:27Z</time>
      </trkpt>
      <trkpt lat="51.217238187196" lon="4.47674429154">
        <ele>3.6</ele>
        <time>2020-10-24T11:54:33Z</time>
      </trkpt>
      <trkpt lat="51.21718001681" lon="4.477441414163">
        <ele>0</ele>
        <time>2020-10-24T11:56:58Z</time>
      </trkpt>
      <trkpt lat="51.217182950475" lon="4.477761099829">
        <ele>0</ele>
        <time>2020-10-24T11:57:06Z</time>
      </trkpt>
      <trkpt lat="51.217176747869" lon="4.478091011413">
        <ele>0.4</ele>
        <time>2020-10-24T11:57:12Z</time>
      </trkpt>
      <trkpt lat="51.217168701245" lon="4.478405332663">
        <ele>1.2</ele>
        <time>2020-10-24T11:57:19Z</time>
      </trkpt>
      <trkpt lat="51.217152440359" lon="4.47869475967">
        <ele>0.8</ele>
        <time>2020-10-24T11:57:25Z</time>
      </trkpt>
      <trkpt lat="51.217135844197" lon="4.478999106459">
        <ele>1</ele>
        <time>2020-10-24T11:57:31Z</time>
      </trkpt>
      <trkpt lat="51.217114218895" lon="4.479314684994">
        <ele>1.6</ele>
        <time>2020-10-24T11:57:37Z</time>
      </trkpt>
      <trkpt lat="51.217101813683" lon="4.47961593048">
        <ele>0.8</ele>
        <time>2020-10-24T11:57:42Z</time>
      </trkpt>
      <trkpt lat="51.217072225576" lon="4.479940561467">
        <ele>0.4</ele>
        <time>2020-10-24T11:57:49Z</time>
      </trkpt>
      <trkpt lat="51.217056467604" lon="4.480258067839">
        <ele>0.6</ele>
        <time>2020-10-24T11:57:56Z</time>
      </trkpt>
      <trkpt lat="51.217045319677" lon="4.480556882574">
        <ele>0</ele>
        <time>2020-10-24T11:58:02Z</time>
      </trkpt>
      <trkpt lat="51.217040793451" lon="4.480862989562">
        <ele>0.6</ele>
        <time>2020-10-24T11:58:09Z</time>
      </trkpt>
      <trkpt lat="51.217027047135" lon="4.481051079398">
        <ele>0.6</ele>
        <time>2020-10-24T11:58:13Z</time>
      </trkpt>
      <trkpt lat="51.21652455223" lon="4.480348759997">
        <ele>0</ele>
        <time>2020-10-24T12:02:19Z</time>
      </trkpt>
      <trkpt lat="51.216338893145" lon="4.480289583783">
        <ele>0</ele>
        <time>2020-10-24T12:02:27Z</time>
      </trkpt>
      <trkpt lat="51.21619849632" lon="4.480092441495">
        <ele>0</ele>
        <time>2020-10-24T12:02:33Z</time>
      </trkpt>
      <trkpt lat="51.216109564361" lon="4.479832686414">
        <ele>0</ele>
        <time>2020-10-24T12:02:39Z</time>
      </trkpt>
      <trkpt lat="51.216088022878" lon="4.479542337398">
        <ele>0</ele>
        <time>2020-10-24T12:02:45Z</time>
      </trkpt>
      <trkpt lat="51.215987104802" lon="4.479265399422">
        <ele>0</ele>
        <time>2020-10-24T12:02:52Z</time>
      </trkpt>
      <trkpt lat="51.215829860358" lon="4.479113435575">
        <ele>0</ele>
        <time>2020-10-24T12:02:58Z</time>
      </trkpt>
      <trkpt lat="51.215657528494" lon="4.478992652396">
        <ele>0</ele>
        <time>2020-10-24T12:03:04Z</time>
      </trkpt>
      <trkpt lat="51.215547641785" lon="4.478760892861">
        <ele>0</ele>
        <time>2020-10-24T12:03:10Z</time>
      </trkpt>
      <trkpt lat="51.215634310631" lon="4.478494851355">
        <ele>0</ele>
        <time>2020-10-24T12:03:16Z</time>
      </trkpt>
      <trkpt lat="51.215762721339" lon="4.478258817051">
        <ele>0</ele>
        <time>2020-10-24T12:03:23Z</time>
      </trkpt>
      <trkpt lat="51.2158900424" lon="4.478027728068">
        <ele>0</ele>
        <time>2020-10-24T12:03:30Z</time>
      </trkpt>
      <trkpt lat="51.216021386773" lon="4.477790101203">
        <ele>0</ele>
        <time>2020-10-24T12:03:37Z</time>
      </trkpt>
      <trkpt lat="51.216184414728" lon="4.477612824018">
        <ele>0</ele>
        <time>2020-10-24T12:03:44Z</time>
      </trkpt>
      <trkpt lat="51.216366385777" lon="4.477559431315">
        <ele>0</ele>
        <time>2020-10-24T12:03:51Z</time>
      </trkpt>
      <trkpt lat="51.216549362654" lon="4.477561107695">
        <ele>0</ele>
        <time>2020-10-24T12:03:58Z</time>
      </trkpt>
      <trkpt lat="51.21675086353" lon="4.477556581469">
        <ele>0</ele>
        <time>2020-10-24T12:04:06Z</time>
      </trkpt>
      <trkpt lat="51.216802747491" lon="4.477567813215">
        <ele>0</ele>
        <time>2020-10-24T12:04:08Z</time>
      </trkpt>
      <trkpt lat="51.217188985443" lon="4.4779294922">
        <ele>0</ele>
        <time>2020-10-24T12:05:59Z</time>
      </trkpt>
      <trkpt lat="51.217174317118" lon="4.478237024111">
        <ele>0</ele>
        <time>2020-10-24T12:06:08Z</time>
      </trkpt>
      <trkpt lat="51.217171131996" lon="4.478531815534">
        <ele>0</ele>
        <time>2020-10-24T12:06:14Z</time>
      </trkpt>
      <trkpt lat="51.217154116739" lon="4.479041435054">
        <ele>0</ele>
        <time>2020-10-24T12:06:24Z</time>
      </trkpt>
      <trkpt lat="51.217141627708" lon="4.479348380232">
        <ele>0</ele>
        <time>2020-10-24T12:06:30Z</time>
      </trkpt>
      <trkpt lat="51.217157050404" lon="4.479659348722">
        <ele>0.4</ele>
        <time>2020-10-24T12:06:36Z</time>
      </trkpt>
      <trkpt lat="51.217114554171" lon="4.479951457937">
        <ele>0.6</ele>
        <time>2020-10-24T12:06:42Z</time>
      </trkpt>
      <trkpt lat="51.217092928869" lon="4.480257900201">
        <ele>0</ele>
        <time>2020-10-24T12:06:49Z</time>
      </trkpt>
      <trkpt lat="51.217081780942" lon="4.480547243389">
        <ele>0</ele>
        <time>2020-10-24T12:06:55Z</time>
      </trkpt>
      <trkpt lat="51.217060742373" lon="4.48086567177">
        <ele>1</ele>
        <time>2020-10-24T12:07:02Z</time>
      </trkpt>
      <trkpt lat="51.217049510627" lon="4.481020485463">
        <ele>1.4</ele>
        <time>2020-10-24T12:07:06Z</time>
      </trkpt>
      <trkpt lat="51.216682215769" lon="4.481400772266">
        <ele>0</ele>
        <time>2020-10-24T12:08:04Z</time>
      </trkpt>
      <trkpt lat="51.216584398996" lon="4.481393228556">
        <ele>0</ele>
        <time>2020-10-24T12:08:12Z</time>
      </trkpt>
    </trkseg>
  </trk>
</gpx>